Time;durP1;ratioP1;P1;durP2;ratioP2;P2;SDS_P1;SDS_P2;PMS_P1;PMS_P2;Temp;Humidity;BMP_temperature;BMP_pressure;BME280_temperature;BME280_humidity;BME280_pressure;Samples;Min_cycle;Max_cycle;Signal;HPM_P1;HPM_P2
2021/03/25 00:00:37;;;;;;;46.03;27.10;;;6.90;1.00;;;;;;5073566;28;20980;-61
2021/03/25 00:03:04;;;;;;;36.87;26.67;;;6.90;1.00;;;;;;5076126;28;20723;-61
2021/03/25 00:05:31;;;;;;;39.83;25.50;;;6.90;1.00;;;;;;5074644;28;20192;-61
2021/03/25 00:07:58;;;;;;;37.17;26.60;;;6.90;1.00;;;;;;5076761;28;20532;-61
2021/03/25 00:10:30;;;;;;;39.70;26.13;;;7.00;1.00;;;;;;5071083;28;20498;-61
2021/03/25 00:12:57;;;;;;;39.97;25.57;;;6.90;1.00;;;;;;5076998;28;20452;-61
2021/03/25 00:15:22;;;;;;;40.70;27.17;;;6.80;1.00;;;;;;5073118;28;20445;-60
2021/03/25 00:17:48;;;;;;;42.53;26.73;;;6.80;1.00;;;;;;5071014;28;20490;-61
2021/03/25 00:20:14;;;;;;;42.40;27.67;;;6.70;1.00;;;;;;5072274;28;20256;-60
2021/03/25 00:22:40;;;;;;;41.20;26.50;;;6.80;1.00;;;;;;5079523;28;20442;-61
2021/03/25 00:25:08;;;;;;;44.27;28.37;;;6.70;1.00;;;;;;5073946;28;20821;-59
2021/03/25 00:27:34;;;;;;;43.80;26.77;;;6.60;1.00;;;;;;5080236;28;20463;-61
2021/03/25 00:29:59;;;;;;;43.73;27.63;;;6.60;1.00;;;;;;5075129;28;20436;-60
2021/03/25 00:32:26;;;;;;;41.17;28.40;;;6.70;1.00;;;;;;5078110;28;20199;-60
2021/03/25 00:34:52;;;;;;;38.90;27.27;;;6.60;1.00;;;;;;5081187;28;20194;-60
2021/03/25 00:37:18;;;;;;;39.43;27.60;;;6.60;1.00;;;;;;5073765;28;20531;-61
2021/03/25 00:39:43;;;;;;;41.10;28.93;;;6.70;1.00;;;;;;5081784;28;20692;-61
2021/03/25 00:42:09;;;;;;;40.50;26.80;;;6.60;1.00;;;;;;5075493;28;20187;-61
2021/03/25 00:44:34;;;;;;;46.67;27.60;;;6.50;1.00;;;;;;5085396;28;20201;-59
2021/03/25 00:47:00;;;;;;;38.53;26.03;;;6.50;1.00;;;;;;5081883;28;20183;-59
2021/03/25 00:49:26;;;;;;;38.30;26.50;;;6.50;1.00;;;;;;5078353;28;20195;-62
2021/03/25 00:51:51;;;;;;;42.43;26.10;;;6.50;1.00;;;;;;5071947;28;20196;-60
2021/03/25 00:54:17;;;;;;;44.03;27.03;;;6.50;1.00;;;;;;5091724;28;20193;-59
2021/03/25 00:56:42;;;;;;;41.10;25.37;;;6.50;1.00;;;;;;5071852;28;20190;-61
2021/03/25 00:59:08;;;;;;;41.10;25.53;;;6.40;1.00;;;;;;5078503;28;20203;-61
2021/03/25 01:01:34;;;;;;;40.60;25.33;;;6.40;1.00;;;;;;5070808;28;20184;-61
2021/03/25 01:03:59;;;;;;;43.73;27.87;;;6.40;1.00;;;;;;5079050;28;20270;-61
2021/03/25 01:06:25;;;;;;;40.47;26.10;;;6.50;1.00;;;;;;5079633;28;20537;-62
2021/03/25 01:08:51;;;;;;;41.53;28.27;;;6.40;1.00;;;;;;5073161;28;20514;-60
2021/03/25 01:11:23;;;;;;;40.07;27.13;;;6.40;1.00;;;;;;5079956;28;20248;-59
2021/03/25 01:13:55;;;;;;;44.80;27.80;;;6.40;1.00;;;;;;5086122;28;20473;-61
2021/03/25 01:16:31;;;;;;;44.27;28.47;;;6.40;1.00;;;;;;5084224;28;20498;-59
2021/03/25 01:18:58;;;;;;;42.20;27.60;;;6.40;1.00;;;;;;5079581;28;20456;-61
2021/03/25 01:21:26;;;;;;;40.83;26.10;;;6.30;1.00;;;;;;5076977;28;20445;-61
2021/03/25 01:23:52;;;;;;;42.53;27.37;;;6.20;1.00;;;;;;5086287;28;20446;-62
2021/03/25 01:26:18;;;;;;;44.60;27.33;;;6.20;1.00;;;;;;5077674;28;20999;-60
2021/03/25 01:28:43;;;;;;;40.50;26.07;;;6.20;1.00;;;;;;5078970;28;20441;-60
2021/03/25 01:31:09;;;;;;;43.33;28.87;;;6.20;1.00;;;;;;5083409;28;20201;-61
2021/03/25 01:33:35;;;;;;;42.77;27.80;;;6.20;1.00;;;;;;5076023;28;20198;-61
2021/03/25 01:36:00;;;;;;;42.17;27.00;;;6.20;1.00;;;;;;5076015;28;20210;-60
2021/03/25 01:38:26;;;;;;;43.57;27.37;;;6.20;1.00;;;;;;5083022;28;20197;-60
2021/03/25 01:40:54;;;;;;;43.33;27.87;;;6.10;1.00;;;;;;5080694;28;20237;-60
2021/03/25 01:43:22;;;;;;;41.53;26.13;;;6.10;1.00;;;;;;5076020;28;20183;-60
2021/03/25 01:46:04;;;;;;;42.93;26.87;;;6.10;1.00;;;;;;5076806;28;20457;-61
2021/03/25 01:48:33;;;;;;;47.17;27.93;;;6.00;1.00;;;;;;5076203;28;20440;-60
2021/03/25 01:51:04;;;;;;;41.33;27.03;;;6.00;1.00;;;;;;5082891;28;20529;-61
2021/03/25 01:54:08;;;;;;;37.47;26.17;;;5.90;1.00;;;;;;5081513;28;20449;-59
2021/03/25 01:56:48;;;;;;;44.70;26.73;;;5.90;1.00;;;;;;5076933;28;20445;-60
2021/03/25 01:59:30;;;;;;;43.40;26.10;;;6.00;1.00;;;;;;5070165;28;20473;-60
2021/03/25 02:02:09;;;;;;;42.13;27.33;;;6.00;1.00;;;;;;5078450;28;20445;-61
2021/03/25 02:04:55;;;;;;;39.43;26.77;;;5.90;1.00;;;;;;5070995;28;20499;-61
2021/03/25 02:07:59;;;;;;;39.17;25.50;;;5.90;1.00;;;;;;5078704;28;20969;-60
2021/03/25 02:10:28;;;;;;;37.70;25.53;;;5.90;1.00;;;;;;4989606;28;20457;-60
2021/03/25 02:13:06;;;;;;;44.27;26.60;;;5.80;1.00;;;;;;5064761;28;20488;-61
2021/03/25 02:15:43;;;;;;;40.87;25.93;;;5.90;1.00;;;;;;5075162;28;20457;-62
2021/03/25 02:18:30;;;;;;;40.27;26.80;;;5.90;1.00;;;;;;5080672;28;20449;-59
2021/03/25 02:21:14;;;;;;;39.77;27.23;;;5.90;1.00;;;;;;5082222;28;20976;-60
2021/03/25 02:23:45;;;;;;;39.63;27.00;;;5.90;1.00;;;;;;5080321;28;20436;-60
2021/03/25 02:26:48;;;;;;;45.03;27.50;;;6.00;1.00;;;;;;5081391;28;20524;-61
2021/03/25 02:29:33;;;;;;;41.70;26.90;;;5.90;1.00;;;;;;5060174;28;20977;-60
2021/03/25 02:32:08;;;;;;;41.10;25.20;;;5.80;1.00;;;;;;5077073;28;20440;-60
2021/03/25 02:34:39;;;;;;;40.80;25.57;;;5.80;1.00;;;;;;5078913;28;20679;-60
2021/03/25 02:37:21;;;;;;;39.90;27.00;;;5.70;1.00;;;;;;5070696;28;20460;-60
2021/03/25 02:39:50;;;;;;;38.87;25.77;;;5.70;1.00;;;;;;5075590;28;20481;-61
2021/03/25 02:42:18;;;;;;;40.73;26.50;;;5.80;1.00;;;;;;5068881;28;20442;-60
2021/03/25 02:44:49;;;;;;;46.97;28.50;;;5.70;1.00;;;;;;5077550;28;20429;-59
2021/03/25 02:47:18;;;;;;;41.70;27.20;;;5.70;1.00;;;;;;5075024;28;20437;-60
2021/03/25 02:49:51;;;;;;;40.53;26.60;;;5.70;1.00;;;;;;5082023;28;20441;-61
2021/03/25 02:52:30;;;;;;;43.20;27.33;;;5.70;1.00;;;;;;5074070;28;20965;-60
2021/03/25 02:55:01;;;;;;;37.43;25.83;;;5.70;1.00;;;;;;5073532;28;20440;-60
2021/03/25 02:58:01;;;;;;;41.67;27.43;;;5.80;1.00;;;;;;5078230;28;20449;-60
2021/03/25 03:00:33;;;;;;;42.80;26.90;;;5.70;1.00;;;;;;5068566;28;20495;-60
2021/03/25 03:03:09;;;;;;;45.90;27.77;;;5.80;1.00;;;;;;5072081;28;20462;-60
2021/03/25 03:05:36;;;;;;;45.33;28.67;;;5.60;1.00;;;;;;5080019;28;20452;-60
2021/03/25 03:08:10;;;;;;;37.47;26.40;;;5.70;1.00;;;;;;5071885;28;20777;-60
2021/03/25 03:10:42;;;;;;;37.90;25.97;;;5.60;1.00;;;;;;5074710;28;20511;-60
2021/03/25 03:13:10;;;;;;;39.17;26.27;;;5.60;1.00;;;;;;5075907;28;20566;-61
2021/03/25 03:15:46;;;;;;;39.00;26.83;;;5.70;1.00;;;;;;5076236;28;20452;-60
2021/03/25 03:18:21;;;;;;;45.10;27.80;;;5.60;1.00;;;;;;5077967;28;20471;-61
2021/03/25 03:20:54;;;;;;;44.77;26.80;;;5.70;1.00;;;;;;5082937;28;20987;-61
2021/03/25 03:23:24;;;;;;;41.17;28.40;;;5.70;1.00;;;;;;5076737;28;20491;-59
2021/03/25 03:25:50;;;;;;;45.67;27.03;;;5.60;1.00;;;;;;5075501;28;21486;-61
2021/03/25 03:28:30;;;;;;;42.50;26.63;;;5.60;1.00;;;;;;5069852;28;20433;-60
2021/03/25 03:31:08;;;;;;;42.80;27.20;;;5.50;1.00;;;;;;5073427;28;20186;-60
2021/03/25 03:33:40;;;;;;;39.90;27.13;;;5.60;1.00;;;;;;5072500;28;20452;-60
2021/03/25 03:36:11;;;;;;;43.87;28.40;;;5.50;1.00;;;;;;5072956;28;20481;-61
2021/03/25 03:38:45;;;;;;;44.10;26.40;;;5.50;1.00;;;;;;5084659;28;20460;-60
2021/03/25 03:41:14;;;;;;;43.23;28.67;;;5.40;1.00;;;;;;5068076;28;20862;-61
2021/03/25 03:43:42;;;;;;;40.87;26.40;;;5.30;1.00;;;;;;5067675;28;20502;-61
2021/03/25 03:46:24;;;;;;;44.30;27.00;;;5.30;1.00;;;;;;5067785;28;20442;-61
2021/03/25 03:49:04;;;;;;;43.17;25.57;;;5.40;1.00;;;;;;5075523;28;20971;-60
2021/03/25 03:51:58;;;;;;;44.43;26.87;;;5.40;1.00;;;;;;5068809;28;20930;-60
2021/03/25 03:54:24;;;;;;;41.40;27.30;;;5.40;1.00;;;;;;5078559;28;20429;-60
2021/03/25 03:56:58;;;;;;;44.67;27.40;;;5.40;1.00;;;;;;5081810;28;20452;-60
2021/03/25 03:59:40;;;;;;;41.17;26.23;;;5.30;1.00;;;;;;5079035;28;20470;-61
2021/03/25 04:02:40;;;;;;;42.67;26.60;;;5.30;1.00;;;;;;5070263;28;20442;-61
2021/03/25 04:05:25;;;;;;;45.97;28.80;;;5.40;1.00;;;;;;5073292;28;20450;-60
2021/03/25 04:08:19;;;;;;;39.90;27.20;;;5.30;1.00;;;;;;5081496;28;20437;-61
2021/03/25 04:10:51;;;;;;;43.40;27.30;;;5.30;1.00;;;;;;5068573;28;20855;-60
2021/03/25 04:13:25;;;;;;;41.43;26.43;;;5.40;1.00;;;;;;5070052;28;20437;-61
2021/03/25 04:15:52;;;;;;;39.17;25.57;;;5.30;1.00;;;;;;5071809;28;20505;-61
2021/03/25 04:18:27;;;;;;;39.90;26.93;;;5.30;1.00;;;;;;5072618;28;20444;-61
2021/03/25 04:21:03;;;;;;;44.73;28.20;;;5.10;1.00;;;;;;5074927;28;20456;-61
2021/03/25 04:23:30;;;;;;;43.40;28.90;;;5.10;1.00;;;;;;5074948;28;20806;-61
2021/03/25 04:26:01;;;;;;;40.00;24.83;;;5.10;1.00;;;;;;5079193;28;20486;-60
2021/03/25 04:28:33;;;;;;;42.43;27.63;;;5.20;1.00;;;;;;5071427;28;20514;-60
2021/03/25 04:30:59;;;;;;;41.57;28.20;;;5.20;1.00;;;;;;5079016;28;20918;-59
2021/03/25 04:33:28;;;;;;;42.53;26.60;;;5.20;1.00;;;;;;5090425;28;20447;-62
2021/03/25 04:35:56;;;;;;;41.20;25.73;;;5.20;1.00;;;;;;5073911;28;20449;-61
2021/03/25 04:38:25;;;;;;;39.83;25.67;;;5.30;1.00;;;;;;5067841;28;20540;-60
2021/03/25 04:40:54;;;;;;;39.70;25.10;;;5.20;1.00;;;;;;5081721;28;20559;-61
2021/03/25 04:43:23;;;;;;;44.90;27.90;;;5.20;1.00;;;;;;5079936;28;20515;-60
2021/03/25 04:46:00;;;;;;;40.20;25.97;;;5.20;1.00;;;;;;5071992;28;21071;-60
2021/03/25 04:48:28;;;;;;;42.73;26.47;;;5.10;1.00;;;;;;5078606;28;20441;-60
2021/03/25 04:51:09;;;;;;;40.97;27.93;;;5.20;1.00;;;;;;5076245;28;20457;-61
2021/03/25 04:53:37;;;;;;;41.57;25.80;;;5.10;1.00;;;;;;5070979;28;20502;-60
2021/03/25 04:56:09;;;;;;;46.23;29.90;;;5.10;1.00;;;;;;5074359;28;20471;-60
2021/03/25 04:58:46;;;;;;;45.37;30.00;;;5.20;1.00;;;;;;5086501;28;20440;-60
2021/03/25 05:01:18;;;;;;;43.27;29.47;;;4.90;1.00;;;;;;5078062;28;20484;-59
2021/03/25 05:03:45;;;;;;;42.30;26.77;;;5.10;1.00;;;;;;5075569;28;20469;-60
2021/03/25 05:06:18;;;;;;;47.20;29.67;;;5.10;1.00;;;;;;5075551;28;20485;-61
2021/03/25 05:08:45;;;;;;;45.47;28.50;;;5.10;1.00;;;;;;5074019;28;20487;-60
2021/03/25 05:11:17;;;;;;;49.23;30.47;;;4.80;1.00;;;;;;5072116;28;20445;-61
2021/03/25 05:13:44;;;;;;;42.00;26.50;;;5.30;1.00;;;;;;5081912;28;20443;-61
2021/03/25 05:16:32;;;;;;;41.97;27.67;;;5.30;1.00;;;;;;5075084;28;20448;-60
2021/03/25 05:19:07;;;;;;;39.80;26.60;;;5.30;1.00;;;;;;5085310;28;20506;-60
2021/03/25 05:21:58;;;;;;;45.03;28.53;;;5.30;1.00;;;;;;5086927;28;20446;-62
2021/03/25 05:24:33;;;;;;;42.90;28.57;;;5.40;1.00;;;;;;5085447;28;20480;-61
2021/03/25 05:27:34;;;;;;;50.40;28.80;;;5.40;1.00;;;;;;5081416;28;20449;-62
2021/03/25 05:30:04;;;;;;;49.63;30.60;;;5.60;1.00;;;;;;5076328;28;20556;-62
2021/03/25 05:32:37;;;;;;;44.87;28.47;;;5.60;1.00;;;;;;5077884;28;20784;-59
2021/03/25 05:35:07;;;;;;;44.80;30.00;;;5.70;1.00;;;;;;5075339;28;20449;-61
2021/03/25 05:37:33;;;;;;;41.07;26.90;;;5.80;1.00;;;;;;5073428;28;20532;-62
2021/03/25 05:40:00;;;;;;;46.80;28.70;;;5.80;1.00;;;;;;5067439;28;20948;-62
2021/03/25 05:42:54;;;;;;;44.10;26.80;;;5.80;1.00;;;;;;5066842;28;20175;-61
2021/03/25 05:45:25;;;;;;;46.90;30.10;;;5.80;1.00;;;;;;5074873;28;21189;-62
2021/03/25 05:48:09;;;;;;;42.53;28.40;;;5.80;1.00;;;;;;5075149;28;20989;-62
2021/03/25 05:50:48;;;;;;;47.10;29.63;;;5.90;1.00;;;;;;5071759;28;20453;-61
2021/03/25 05:53:34;;;;;;;44.33;29.07;;;5.90;1.00;;;;;;5074762;28;20479;-62
2021/03/25 05:56:33;;;;;;;47.43;30.63;;;6.00;1.00;;;;;;5069657;28;20444;-61
2021/03/25 05:59:02;;;;;;;46.20;29.43;;;6.20;1.00;;;;;;5080082;28;20480;-61
2021/03/25 06:01:37;;;;;;;45.00;29.27;;;6.20;1.00;;;;;;5077647;28;20437;-62
2021/03/25 06:04:19;;;;;;;45.83;28.30;;;6.40;1.00;;;;;;5084349;28;20441;-62
2021/03/25 06:07:14;;;;;;;45.53;29.53;;;6.30;1.00;;;;;;5074593;28;20437;-61
2021/03/25 06:09:49;;;;;;;49.57;28.43;;;6.40;1.00;;;;;;5067730;28;20525;-60
2021/03/25 06:12:29;;;;;;;46.70;30.10;;;6.20;1.00;;;;;;5072351;28;20440;-61
2021/03/25 06:15:19;;;;;;;49.83;30.17;;;6.70;1.00;;;;;;5074502;28;21025;-60
2021/03/25 06:18:01;;;;;;;48.67;32.37;;;6.70;1.00;;;;;;5073261;28;20468;-62
2021/03/25 06:20:34;;;;;;;46.73;30.50;;;6.80;1.00;;;;;;5073514;28;20472;-61
2021/03/25 06:23:31;;;;;;;45.37;30.73;;;6.90;1.00;;;;;;5082743;28;20520;-61
2021/03/25 06:26:13;;;;;;;51.70;32.43;;;7.00;1.00;;;;;;5081570;28;20495;-61
2021/03/25 06:28:45;;;;;;;47.03;30.53;;;7.10;1.00;;;;;;5058713;28;20437;-63
2021/03/25 06:31:22;;;;;;;44.30;30.00;;;7.40;1.00;;;;;;5081417;28;21073;-62
2021/03/25 06:34:15;;;;;;;49.40;31.00;;;7.50;1.00;;;;;;5074039;28;20985;-63
2021/03/25 06:37:05;;;;;;;53.57;32.13;;;7.60;1.00;;;;;;5069338;28;20450;-62
2021/03/25 06:39:46;;;;;;;47.43;31.97;;;7.60;1.00;;;;;;5074912;28;20461;-62
2021/03/25 06:42:20;;;;;;;50.60;31.27;;;7.70;1.00;;;;;;5072578;28;20829;-61
2021/03/25 06:44:50;;;;;;;51.37;31.47;;;7.70;1.00;;;;;;5072524;28;20520;-62
2021/03/25 06:47:48;;;;;;;54.50;35.00;;;7.80;1.00;;;;;;5075599;28;20807;-62
2021/03/25 06:50:19;;;;;;;53.50;31.80;;;7.80;1.00;;;;;;5060500;28;20443;-62
2021/03/25 06:52:45;;;;;;;50.37;33.53;;;7.80;1.00;;;;;;5072515;28;20429;-62
2021/03/25 06:55:21;;;;;;;50.00;31.73;;;7.80;1.00;;;;;;5078347;28;20934;-61
2021/03/25 06:57:57;;;;;;;51.27;32.73;;;8.00;1.00;;;;;;5073024;28;20183;-62
2021/03/25 07:00:26;;;;;;;48.43;31.70;;;8.10;1.00;;;;;;5071178;28;20461;-62
2021/03/25 07:02:53;;;;;;;49.37;32.50;;;8.10;1.00;;;;;;5075007;28;20844;-63
2021/03/25 07:05:25;;;;;;;50.13;30.93;;;7.80;1.00;;;;;;5082116;28;20448;-62
2021/03/25 07:08:24;;;;;;;46.73;32.47;;;8.20;1.00;;;;;;5074216;28;20441;-62
2021/03/25 07:10:54;;;;;;;53.40;34.00;;;8.30;1.00;;;;;;5073676;28;20854;-62
2021/03/25 07:13:31;;;;;;;55.30;34.07;;;8.40;1.00;;;;;;5073751;28;20883;-62
2021/03/25 07:15:57;;;;;;;55.13;33.30;;;8.60;1.00;;;;;;5080757;28;20797;-61
2021/03/25 07:18:28;;;;;;;50.00;33.00;;;8.70;1.00;;;;;;5082906;28;20776;-62
2021/03/25 07:21:42;;;;;;;48.63;32.50;;;8.60;1.00;;;;;;5070633;28;20962;-63
2021/03/25 07:24:36;;;;;;;51.70;32.20;;;9.00;1.00;;;;;;5049163;28;20580;-61
2021/03/25 07:27:09;;;;;;;51.60;32.17;;;9.00;1.00;;;;;;5071806;28;20426;-62
2021/03/25 07:29:37;;;;;;;50.70;31.50;;;9.20;1.00;;;;;;5074314;28;20595;-61
2021/03/25 07:32:06;;;;;;;50.57;31.67;;;12.10;1.00;;;;;;5075242;28;20448;-62
2021/03/25 07:34:43;;;;;;;46.70;31.23;;;9.50;1.00;;;;;;5071340;28;20527;-61
2021/03/25 07:37:11;;;;;;;46.23;30.90;;;9.60;1.00;;;;;;5070503;28;20443;-63
2021/03/25 07:39:49;;;;;;;50.30;32.50;;;9.70;1.00;;;;;;5074227;28;20466;-62
2021/03/25 07:42:36;;;;;;;50.40;33.03;;;9.80;1.00;;;;;;5068943;28;21030;-62
2021/03/25 07:45:30;;;;;;;51.27;31.90;;;9.90;1.00;;;;;;5072142;28;20500;-62
2021/03/25 07:48:23;;;;;;;53.67;32.00;;;10.00;1.00;;;;;;5071714;28;20521;-61
2021/03/25 07:50:51;;;;;;;49.90;31.33;;;10.00;1.00;;;;;;5082384;28;20992;-62
2021/03/25 07:53:30;;;;;;;45.63;30.30;;;10.20;1.00;;;;;;5080822;28;20447;-63
2021/03/25 07:56:08;;;;;;;53.30;32.60;;;10.60;1.00;;;;;;5070984;28;20526;-62
2021/03/25 07:58:40;;;;;;;47.33;31.87;;;10.60;1.00;;;;;;5071209;28;21009;-61
2021/03/25 08:01:23;;;;;;;52.80;33.23;;;10.70;1.00;;;;;;5070289;28;20929;-62
2021/03/25 08:03:58;;;;;;;51.30;32.20;;;10.80;1.00;;;;;;5071745;28;20954;-63
2021/03/25 08:06:31;;;;;;;51.60;31.43;;;11.00;1.00;;;;;;5070363;28;20429;-62
2021/03/25 08:09:16;;;;;;;48.20;30.23;;;10.10;1.00;;;;;;5071140;28;21005;-62
2021/03/25 08:12:18;;;;;;;50.20;32.17;;;11.20;1.00;;;;;;5065679;28;20432;-63
2021/03/25 08:14:44;;;;;;;48.53;31.50;;;11.90;1.00;;;;;;5074000;28;20578;-63
2021/03/25 08:17:37;;;;;;;47.23;31.40;;;11.50;1.00;;;;;;5077420;28;20440;-62
2021/03/25 08:20:19;;;;;;;44.40;30.57;;;11.50;1.00;;;;;;5081003;28;20546;-64
2021/03/25 08:23:19;;;;;;;44.97;31.90;;;11.70;1.00;;;;;;5087487;28;20440;-62
2021/03/25 08:25:56;;;;;;;47.23;31.43;;;11.90;1.00;;;;;;5068915;28;20973;-64
2021/03/25 08:28:56;;;;;;;48.83;33.10;;;12.00;1.00;;;;;;5067299;28;20942;-62
2021/03/25 08:31:30;;;;;;;46.70;30.83;;;12.10;1.00;;;;;;5073574;28;20441;-63
2021/03/25 08:34:15;;;;;;;46.50;31.27;;;12.20;1.00;;;;;;5078784;28;20951;-62
2021/03/25 08:37:01;;;;;;;44.60;30.00;;;12.40;1.00;;;;;;5065804;28;20961;-63
2021/03/25 08:39:34;;;;;;;46.10;31.70;;;12.50;1.00;;;;;;5068827;28;20497;-63
2021/03/25 08:42:18;;;;;;;44.90;31.10;;;12.80;1.00;;;;;;5073576;28;20532;-63
2021/03/25 08:44:46;;;;;;;43.77;29.50;;;13.00;1.00;;;;;;5083149;28;20838;-62
2021/03/25 08:47:12;;;;;;;42.53;29.80;;;13.20;1.00;;;;;;5071931;28;20436;-61
2021/03/25 08:49:51;;;;;;;42.40;29.50;;;13.40;1.00;;;;;;5081760;28;20438;-63
2021/03/25 08:52:19;;;;;;;44.00;29.47;;;13.50;1.00;;;;;;5073175;28;20533;-63
2021/03/25 08:54:52;;;;;;;39.40;29.13;;;13.60;1.00;;;;;;5087303;28;20470;-64
2021/03/25 08:57:22;;;;;;;41.33;28.07;;;13.50;1.00;;;;;;5081726;28;20441;-63
2021/03/25 09:00:13;;;;;;;42.23;27.23;;;13.60;1.00;;;;;;5086470;28;20517;-62
2021/03/25 09:02:45;;;;;;;47.17;28.67;;;13.80;1.00;;;;;;5073752;28;20443;-62
2021/03/25 09:05:38;;;;;;;48.17;29.83;;;14.20;1.00;;;;;;5085776;28;21194;-62
2021/03/25 09:08:10;;;;;;;39.30;27.30;;;14.20;1.00;;;;;;5080543;28;20517;-63
2021/03/25 09:10:49;;;;;;;37.87;27.27;;;14.40;1.00;;;;;;5070016;28;20849;-61
2021/03/25 09:13:18;;;;;;;36.77;27.17;;;14.50;1.00;;;;;;5073959;28;20495;-62
2021/03/25 09:15:45;;;;;;;38.70;27.20;;;14.70;1.00;;;;;;5077349;28;20463;-63
2021/03/25 09:18:15;;;;;;;33.40;25.67;;;17.10;1.00;;;;;;5073873;28;20507;-62
2021/03/25 09:20:50;;;;;;;36.20;27.07;;;15.10;1.00;;;;;;5074495;28;20465;-61
2021/03/25 09:23:31;;;;;;;36.70;24.67;;;15.30;1.00;;;;;;5080205;28;20933;-61
2021/03/25 09:25:58;;;;;;;34.70;25.57;;;15.30;1.00;;;;;;5083662;28;20460;-62
2021/03/25 09:28:43;;;;;;;32.30;23.57;;;15.20;1.00;;;;;;5077029;28;20438;-62
2021/03/25 09:31:14;;;;;;;33.93;24.30;;;15.30;1.00;;;;;;5084334;28;20922;-61
2021/03/25 09:33:40;;;;;;;34.27;26.03;;;15.40;1.00;;;;;;5082849;28;20516;-62
2021/03/25 09:36:18;;;;;;;38.67;27.10;;;15.60;1.00;;;;;;5075889;28;20528;-63
2021/03/25 09:38:57;;;;;;;35.67;22.37;;;15.90;1.00;;;;;;5082955;28;20203;-64
2021/03/25 09:41:25;;;;;;;33.33;25.27;;;16.00;1.00;;;;;;5078228;28;20532;-63
2021/03/25 09:44:19;;;;;;;35.65;27.00;;;16.10;1.00;;;;;;5075721;28;20565;-61
2021/03/25 09:46:54;;;;;;;32.33;22.70;;;16.40;1.00;;;;;;5063734;28;20214;-61
2021/03/25 09:49:19;;;;;;;32.03;23.63;;;16.40;1.00;;;;;;5069471;28;20445;-61
2021/03/25 09:52:11;;;;;;;29.97;21.33;;;16.40;1.00;;;;;;5079249;28;20442;-63
2021/03/25 09:54:48;;;;;;;29.70;20.67;;;14.80;1.00;;;;;;5076498;28;20180;-62
2021/03/25 09:57:29;;;;;;;30.00;22.10;;;16.90;1.00;;;;;;5070982;28;20484;-64
2021/03/25 10:00:09;;;;;;;33.77;23.60;;;16.80;1.00;;;;;;5077627;28;20464;-61
2021/03/25 10:02:37;;;;;;;29.67;22.30;;;16.70;1.00;;;;;;5084196;28;20428;-62
2021/03/25 10:05:25;;;;;;;33.30;23.47;;;16.60;1.00;;;;;;5090159;28;20485;-61
2021/03/25 10:07:52;;;;;;;37.20;24.67;;;16.70;1.00;;;;;;5082172;28;20944;-63
2021/03/25 10:10:30;;;;;;;32.73;22.70;;;16.80;1.00;;;;;;5086181;28;20836;-61
2021/03/25 10:13:05;;;;;;;31.03;21.53;;;17.20;1.00;;;;;;5083758;28;20498;-61
2021/03/25 10:15:34;;;;;;;29.27;20.00;;;17.40;1.00;;;;;;5075835;28;20461;-61
2021/03/25 10:18:26;;;;;;;29.93;19.90;;;17.60;1.00;;;;;;5072660;28;20424;-63
2021/03/25 10:21:00;;;;;;;27.77;19.43;;;17.40;1.00;;;;;;5070530;28;20472;-61
2021/03/25 10:23:38;;;;;;;31.90;22.17;;;17.30;1.00;;;;;;5077794;28;20481;-63
2021/03/25 10:26:04;;;;;;;30.10;20.03;;;16.90;1.00;;;;;;5075167;28;20470;-64
2021/03/25 10:28:36;;;;;;;31.13;19.47;;;16.80;1.00;;;;;;5080134;28;20449;-62
2021/03/25 10:31:06;;;;;;;30.30;20.00;;;17.10;1.00;;;;;;5081831;28;20220;-63
2021/03/25 10:33:35;;;;;;;28.30;19.53;;;17.20;1.00;;;;;;5080585;28;20833;-62
2021/03/25 10:36:05;;;;;;;29.43;17.40;;;17.20;1.00;;;;;;5078022;28;20449;-63
2021/03/25 10:38:43;;;;;;;28.13;16.43;;;17.30;1.00;;;;;;5081738;28;20883;-61
2021/03/25 10:41:21;;;;;;;25.83;15.60;;;17.20;1.00;;;;;;5076493;28;20970;-62
2021/03/25 10:43:49;;;;;;;27.70;17.27;;;17.20;1.00;;;;;;5078474;28;20430;-62
2021/03/25 10:46:41;;;;;;;28.90;18.30;;;17.40;1.00;;;;;;5081771;28;20505;-63
2021/03/25 10:49:16;;;;;;;21.97;15.20;;;17.40;1.00;;;;;;5081194;28;20540;-62
2021/03/25 10:51:44;;;;;;;25.30;17.20;;;17.10;1.00;;;;;;5079873;28;20437;-63
2021/03/25 10:54:34;;;;;;;28.63;16.60;;;17.30;1.00;;;;;;5090445;28;20433;-62
2021/03/25 10:57:27;;;;;;;26.20;17.90;;;17.60;1.00;;;;;;5083845;28;20443;-64
2021/03/25 11:00:02;;;;;;;26.43;18.23;;;18.10;1.00;;;;;;5079472;28;20462;-62
2021/03/25 11:02:30;;;;;;;22.83;16.23;;;18.30;1.00;;;;;;5086040;28;20464;-62
2021/03/25 11:05:03;;;;;;;27.43;17.93;;;18.30;1.00;;;;;;5080582;28;20520;-62
2021/03/25 11:07:28;;;;;;;29.53;18.67;;;18.70;1.00;;;;;;5071668;28;20772;-62
2021/03/25 11:09:56;;;;;;;26.33;19.03;;;18.80;1.00;;;;;;5077571;28;20456;-62
2021/03/25 11:12:29;;;;;;;25.60;17.73;;;18.80;1.00;;;;;;5080699;28;20194;-62
2021/03/25 11:15:00;;;;;;;38.23;17.77;;;19.00;1.00;;;;;;5078466;28;20499;-61
2021/03/25 11:17:32;;;;;;;26.23;17.67;;;19.00;1.00;;;;;;5069062;28;20464;-63
2021/03/25 11:20:06;;;;;;;28.07;17.40;;;19.10;1.00;;;;;;5070273;28;20465;-63
2021/03/25 11:22:33;;;;;;;27.00;18.70;;;19.10;1.00;;;;;;5066353;28;21021;-62
2021/03/25 11:25:01;;;;;;;25.70;17.93;;;19.20;1.00;;;;;;5077147;28;20466;-64
2021/03/25 11:27:28;;;;;;;28.67;17.57;;;19.30;1.00;;;;;;5087693;28;20440;-62
2021/03/25 11:30:03;;;;;;;23.43;16.90;;;19.40;1.00;;;;;;5081926;28;20525;-63
2021/03/25 11:32:41;;;;;;;26.30;17.27;;;19.20;1.00;;;;;;5085639;28;20431;-62
2021/03/25 11:35:28;;;;;;;25.93;18.63;;;19.60;1.00;;;;;;5089816;28;20502;-62
2021/03/25 11:37:55;;;;;;;23.40;16.17;;;19.20;1.00;;;;;;5078274;28;20430;-62
2021/03/25 11:40:38;;;;;;;25.90;17.20;;;19.30;1.00;;;;;;5087602;28;20463;-62
2021/03/25 11:43:09;;;;;;;29.77;18.90;;;19.20;1.00;;;;;;5076823;28;20437;-63
2021/03/25 11:45:41;;;;;;;25.53;15.83;;;19.40;1.00;;;;;;5080471;28;20425;-63
2021/03/25 11:48:26;;;;;;;23.93;15.80;;;19.20;1.00;;;;;;5081443;28;20436;-62
2021/03/25 11:50:53;;;;;;;24.27;14.90;;;19.30;1.00;;;;;;5076577;28;20441;-63
2021/03/25 11:53:33;;;;;;;22.63;14.57;;;19.30;1.00;;;;;;5069679;28;20998;-63
2021/03/25 11:55:59;;;;;;;23.33;14.90;;;19.00;1.00;;;;;;5079799;28;20444;-63
2021/03/25 11:58:25;;;;;;;19.10;13.60;;;19.10;1.00;;;;;;5074721;28;20455;-64
2021/03/25 12:01:04;;;;;;;21.00;15.67;;;19.20;1.00;;;;;;5070744;28;20465;-63
2021/03/25 12:03:46;;;;;;;20.67;13.63;;;19.40;1.00;;;;;;5075788;28;20263;-64
2021/03/25 12:06:30;;;;;;;23.20;13.63;;;19.10;1.00;;;;;;5078046;28;20421;-63
2021/03/25 12:09:18;;;;;;;27.97;13.97;;;19.10;1.00;;;;;;5080488;28;20428;-63
2021/03/25 12:11:47;;;;;;;24.60;14.80;;;19.00;1.00;;;;;;5080919;28;20478;-64
2021/03/25 12:14:14;;;;;;;18.90;14.13;;;19.10;1.00;;;;;;5071452;28;20450;-62
2021/03/25 12:16:40;;;;;;;21.57;13.63;;;19.30;1.00;;;;;;5075801;28;20448;-62
2021/03/25 12:19:07;;;;;;;22.90;14.63;;;19.40;1.00;;;;;;5080179;28;20935;-64
2021/03/25 12:21:35;;;;;;;25.13;14.77;;;19.50;1.00;;;;;;5082874;28;20434;-62
2021/03/25 12:24:02;;;;;;;20.07;13.23;;;19.50;1.00;;;;;;5082706;28;20490;-62
2021/03/25 12:26:28;;;;;;;20.83;12.83;;;19.50;1.00;;;;;;5080495;28;20433;-61
2021/03/25 12:28:55;;;;;;;21.60;13.70;;;19.80;1.00;;;;;;5079574;28;20760;-62
2021/03/25 12:31:23;;;;;;;21.43;14.40;;;20.30;1.00;;;;;;5083149;28;20437;-63
2021/03/25 12:33:52;;;;;;;18.53;13.07;;;20.30;1.00;;;;;;5082183;28;20526;-62
2021/03/25 12:36:20;;;;;;;19.23;12.97;;;20.40;1.00;;;;;;5092989;28;20437;-63
2021/03/25 12:38:47;;;;;;;22.40;13.60;;;20.40;1.00;;;;;;5079808;28;20437;-63
2021/03/25 12:41:19;;;;;;;22.23;14.47;;;20.10;1.00;;;;;;5085360;28;20461;-63
2021/03/25 12:43:45;;;;;;;22.93;13.77;;;19.90;1.00;;;;;;5071765;28;20431;-61
2021/03/25 12:46:11;;;;;;;25.50;13.50;;;20.00;1.00;;;;;;5084898;28;20483;-63
2021/03/25 12:48:38;;;;;;;20.40;12.67;;;20.00;1.00;;;;;;5083397;28;20432;-63
2021/03/25 12:51:07;;;;;;;21.30;12.70;;;20.30;1.00;;;;;;5085508;28;20178;-64
2021/03/25 12:53:34;;;;;;;20.83;12.53;;;19.30;1.00;;;;;;5078002;28;20519;-63
2021/03/25 12:56:01;;;;;;;23.13;12.70;;;19.30;1.00;;;;;;5082844;28;20449;-64
2021/03/25 12:58:31;;;;;;;20.40;12.60;;;19.60;1.00;;;;;;5071453;28;20930;-63
2021/03/25 13:00:59;;;;;;;24.43;12.47;;;19.60;1.00;;;;;;5073291;28;20462;-64
2021/03/25 13:03:25;;;;;;;20.27;12.70;;;19.90;1.00;;;;;;5080877;28;20534;-62
2021/03/25 13:05:50;;;;;;;23.90;14.17;;;20.40;1.00;;;;;;5088352;28;20429;-62
2021/03/25 13:08:16;;;;;;;18.33;12.77;;;18.50;1.00;;;;;;5083927;28;20549;-62
2021/03/25 13:10:42;;;;;;;18.33;11.47;;;20.40;1.00;;;;;;5084302;28;20536;-62
2021/03/25 13:13:08;;;;;;;16.90;11.40;;;17.50;1.00;;;;;;5083932;28;20725;-64
2021/03/25 13:15:35;;;;;;;18.10;11.03;;;20.30;1.00;;;;;;5075339;28;20187;-63
2021/03/25 13:18:02;;;;;;;16.37;11.00;;;20.40;1.00;;;;;;5086880;28;20522;-63
2021/03/25 13:20:28;;;;;;;18.77;12.00;;;20.40;1.00;;;;;;5082543;28;20459;-63